• Join FlightAware (Why Join?)
  • Login
  • US Flag 
05:10PM EDT


 

Airport Tracker/Info


-or-


 

Live Flight TrackerFlight Track Log ✈ SWA2521 ✈ 06-Jul-2013 ✈ KOAK - KLAX

Flight Track Log - Related Links

Times and Time Zones

All times are in EDT time to prevent confusion due to time zone crossing. See the SWA2521 flight status page for this flight to view local times or setup timezone preferences in your user account.

Time Position Orientation Groundspeed Altitude Reporting Facility
EDT Latitude Longitude Course Direction KTS MPH feet Rate Location/Type
09:05PM 37.7200 -122.2456 211° Southwest 158 182 35,000  Level Oakland Center
09:06PM 37.6842 -122.2722 210° Southwest 234 269 2,800 -14,460 Descending Oakland Center
09:07PM 37.6358 -122.2114 135° Southeast 245 282 5,700 2,880 Climbing Oakland Center
09:08PM 37.5769 -122.1478 139° Southeast 272 313 8,700 2,340 Climbing Oakland Center
09:09PM 37.5033 -122.0978 152° Southeast 294 338 10,500 2,100 Climbing Oakland Center
09:10PM 37.4200 -122.0389 151° Southeast 338 389 13,000 2,340 Climbing Oakland Center
09:11PM 37.3344 -121.9775 150° Southeast 352 405 15,300 2,400 Climbing Oakland Center
09:12PM 37.2272 -121.9017 151° Southeast 366 421 17,900 2,220 Climbing Oakland Center
09:13PM 37.1344 -121.8381 151° Southeast 377 434 19,900 1,800 Climbing Oakland Center
09:14PM 37.0511 -121.7494 140° Southeast 390 449 21,600 1,740 Climbing Oakland Center
09:15PM 36.9742 -121.6472 133° Southeast 402 463 23,500 1,620 Climbing Oakland Center
09:16PM 36.8933 -121.5428 134° Southeast 413 475 24,900 1,380 Climbing Oakland Center
09:17PM 36.8133 -121.4381 134° Southeast 428 493 26,300 1,380 Climbing Oakland Center
09:18PM 36.7292 -121.3286 134° Southeast 435 501 27,800 1,380 Climbing Oakland Center
09:19PM 36.6431 -121.2189 134° Southeast 439 505 29,200 1,320 Climbing Oakland Center
09:20PM 36.5556 -121.1092 135° Southeast 443 510 30,500 1,620 Climbing Oakland Center
09:21PM 36.4703 -120.9994 134° Southeast 442 509 32,500 1,740 Climbing Oakland Center
09:22PM 36.3878 -120.8958 135° Southeast 424 488 34,100 1,200 Climbing Oakland Center
09:23PM 36.3056 -120.7928 135° Southeast 420 483 35,000 420 Climbing Oakland Center
09:24PM 36.2075 -120.6692 134° Southeast 418 481 35,000  Level Oakland Center
09:25PM 36.1247 -120.5683 135° Southeast 417 480 35,000  Level Oakland Center
09:26PM 36.0428 -120.4650 134° Southeast 418 481 35,000  Level Oakland Center
09:27PM 35.9606 -120.3631 135° Southeast 417 480 35,000  Level Oakland Center
09:28PM 35.8769 -120.2617 135° Southeast 418 481 35,000  Level Oakland Center
09:29PM 35.7947 -120.1597 135° Southeast 417 480 35,000  Level Oakland Center
09:30PM 35.7097 -120.0533 135° Southeast 427 491 35,000 -420 Level Oakland Center
09:32PM 35.6206 -119.9517 137° Southeast 433 498 34,200 -840 Descending Oakland Center
09:32PM 35.5828 -119.9225 148° Southeast 419 482 33,800 -960 Descending Los Angeles Center
09:33PM 35.4878 -119.8386 144° Southeast 416 479 32,800 -1,080 Descending Los Angeles Center
09:34PM 35.3722 -119.7406 145° Southeast 418 481 31,700 -1,020 Descending Los Angeles Center
09:35PM 35.2747 -119.6558 145° Southeast 422 486 30,800 -900 Descending Los Angeles Center
09:36PM 35.1733 -119.5686 145° Southeast 432 497 29,900 -960 Descending Los Angeles Center
09:37PM 35.0722 -119.4833 145° Southeast 439 505 28,900 -1,080 Descending Los Angeles Center
09:38PM 34.9725 -119.4000 146° Southeast 436 502 27,800 -1,080 Descending Los Angeles Center
09:39PM 34.8756 -119.3178 145° Southeast 429 494 26,800 -1,020 Descending Los Angeles Center
09:40PM 34.7800 -119.2361 145° Southeast 422 486 25,800 -1,200 Descending Los Angeles Center
09:41PM 34.6858 -119.1575 146° Southeast 413 475 24,400 -1,800 Descending Los Angeles Center
09:42PM 34.5931 -119.0797 145° Southeast 401 461 22,200 -2,160 Descending Los Angeles Center
09:43PM 34.5053 -119.0067 146° Southeast 377 434 20,000 -2,400 Descending Los Angeles Center
09:44PM 34.4069 -118.9244 145° Southeast 354 407 17,400 -2,220 Descending Los Angeles Center
09:45PM 34.3256 -118.8703 151° Southeast 326 375 15,500 -1,920 Descending Los Angeles Center
09:46PM 34.2369 -118.8378 163° South 329 379 13,500 -2,220 Descending Los Angeles Center
09:47PM 34.1492 -118.8053 163° South 332 382 11,100 -1,740 Descending Los Angeles Center
09:48PM 34.0603 -118.7725 163° South 323 372 10,000 -540 Descending Los Angeles Center
09:49PM 34.0300 -118.6753 111° Southeast 297 342 10,000 -900 Level Los Angeles Center
09:50PM 34.0214 -118.5742 96° East 302 348 8,200 -1,440 Descending Los Angeles Center
09:51PM 34.0114 -118.4742 97° East 300 345 7,100 -1,260 Descending Los Angeles Center
09:53PM 34.0189 -118.3925 84° East 278 320 5,700 -1,320 Descending Los Angeles Center
09:54PM 34.0258 -118.2969 85° East 283 326 4,400 -1,140 Descending Los Angeles Center
09:55PM 33.9925 -118.2347 123° Southeast 249 287 3,400 -1,140 Descending Los Angeles Center
09:56PM 33.9625 -118.2894 237° Southwest 213 245 2,100 -1,140 Descending Los Angeles Center
09:57PM 33.9581 -118.3467 265° West 189 217 1,100 -840 Descending Los Angeles Center
09:58PM 33.9542 -118.3906 264° West 155 178 400 -420 Descending Los Angeles Center
09:59PM 33.9475 -118.4322 259° West 150 173 300 -120 Descending Los Angeles Center
10:01PM 33.9425 -118.4081 239° Southwest  Level Estimated